Time;durP1;ratioP1;P1;durP2;ratioP2;P2;SDS_P1;SDS_P2;PMS_P1;PMS_P2;Temp;Humidity;BMP_temperature;BMP_pressure;BME280_temperature;BME280_humidity;BME280_pressure;Samples;Min_cycle;Max_cycle;Signal;HPM_P1;HPM_P2
2021/12/17 00:05:20;;;;;;;39.25;17.80;;;2.10;99.90;;;;;;4968685;28;20030;-88
2021/12/17 00:07:16;;;;;;;34.30;16.83;;;2.10;99.90;;;;;;4974709;28;20047;-87
2021/12/17 00:09:45;;;;;;;37.42;16.73;;;2.20;99.90;;;;;;4975888;28;20476;-88
2021/12/17 00:12:14;;;;;;;38.92;17.02;;;2.20;99.90;;;;;;4973658;28;20030;-89
2021/12/17 00:14:43;;;;;;;38.65;18.20;;;2.30;99.90;;;;;;4973403;28;20063;-88
2021/12/17 00:17:15;;;;;;;33.58;16.63;;;2.30;99.90;;;;;;4972803;28;20070;-87
2021/12/17 00:52:19;;;;;;;26.65;14.32;;;2.50;99.90;;;;;;4956240;28;20116;-83
2021/12/17 00:54:44;;;;;;;26.92;13.45;;;2.50;99.90;;;;;;4967251;28;20035;-84
2021/12/17 00:57:22;;;;;;;30.00;14.25;;;2.50;99.90;;;;;;4968071;28;20019;-83
2021/12/17 00:59:51;;;;;;;28.27;14.95;;;2.50;99.90;;;;;;4963659;28;20049;-83
2021/12/17 01:02:19;;;;;;;34.35;15.65;;;2.50;99.90;;;;;;4969089;28;20539;-83
2021/12/17 01:04:50;;;;;;;27.17;14.07;;;2.50;99.90;;;;;;4965321;28;20042;-82
2021/12/17 01:07:19;;;;;;;31.17;14.60;;;2.60;99.90;;;;;;4963046;28;23290;-83
2021/12/17 01:09:45;;;;;;;29.88;14.75;;;2.60;99.90;;;;;;4963245;28;20033;-83
2021/12/17 01:12:13;;;;;;;26.40;13.55;;;2.60;99.90;;;;;;4968154;28;20480;-83
2021/12/17 01:14:40;;;;;;;29.13;14.98;;;2.60;99.90;;;;;;4961947;28;20488;-83
2021/12/17 01:17:08;;;;;;;28.02;14.98;;;2.60;99.90;;;;;;4964403;28;20022;-83
2021/12/17 01:24:53;;;;;;;27.15;13.75;;;2.70;99.90;;;;;;4965023;28;20014;-83
2021/12/17 01:35:35;;;;;;;;;;;2.70;99.90;;;;;;4961766;28;20046;-82
2021/12/17 01:43:31;;;;;;;23.63;13.18;;;2.80;99.90;;;;;;4966074;28;20043;-83
2021/12/17 01:45:58;;;;;;;28.42;12.95;;;2.80;99.90;;;;;;4965195;28;20106;-83
2021/12/17 01:48:32;;;;;;;26.38;13.82;;;2.90;99.90;;;;;;4962012;28;20034;-83
2021/12/17 01:59:33;;;;;;;25.08;13.45;;;2.90;99.90;;;;;;4982874;23;20082;-75
2021/12/17 02:02:04;;;;;;;21.92;12.30;;;2.90;99.90;;;;;;4980753;28;20435;-75
2021/12/17 02:04:34;;;;;;;24.02;12.23;;;2.90;99.90;;;;;;4966523;28;20106;-75
2021/12/17 02:07:01;;;;;;;24.55;13.43;;;2.90;99.90;;;;;;4971874;28;20086;-75
2021/12/17 02:29:13;;;;;;;24.73;12.80;;;3.00;99.90;;;;;;4955540;28;20097;-75
2021/12/17 02:31:39;;;;;;;21.02;11.65;;;3.00;99.90;;;;;;4953579;28;20034;-75
2021/12/17 02:36:50;;;;;;;;;;;3.00;99.90;;;;;;4950108;28;20043;-76
2021/12/17 02:47:10;;;;;;;27.08;14.40;;;3.00;99.90;;;;;;4948237;28;19917;-76
2021/12/17 02:49:38;;;;;;;25.42;14.27;;;3.10;99.90;;;;;;4955032;28;20035;-76
2021/12/17 02:52:05;;;;;;;24.92;13.25;;;3.10;99.90;;;;;;4944031;28;20031;-75
2021/12/17 02:54:33;;;;;;;24.02;13.27;;;3.10;99.90;;;;;;4947313;28;20659;-76
2021/12/17 02:57:00;;;;;;;24.75;12.30;;;3.10;99.90;;;;;;4951252;28;20029;-76
2021/12/17 02:59:26;;;;;;;21.50;12.88;;;3.20;99.90;;;;;;4937382;28;20031;-74
2021/12/17 03:01:52;;;;;;;20.75;11.90;;;3.10;99.90;;;;;;4951847;28;20086;-76
2021/12/17 03:04:19;;;;;;;22.45;12.10;;;3.20;99.90;;;;;;4949268;28;20034;-76
2021/12/17 03:06:46;;;;;;;21.17;11.98;;;3.20;99.90;;;;;;4967110;28;20475;-76
2021/12/17 03:09:12;;;;;;;20.42;11.90;;;3.20;99.90;;;;;;4948594;28;20023;-76
2021/12/17 03:11:38;;;;;;;20.35;11.68;;;3.20;99.90;;;;;;4950564;28;20506;-76
2021/12/17 03:14:05;;;;;;;22.15;11.10;;;3.20;99.90;;;;;;4949111;28;20039;-76
2021/12/17 03:16:39;;;;;;;18.35;10.45;;;3.10;99.90;;;;;;4950015;28;20117;-76
2021/12/17 03:19:26;;;;;;;21.25;12.18;;;3.20;99.90;;;;;;4953267;28;20042;-75
2021/12/17 03:24:36;;;;;;;;;;;3.20;99.90;;;;;;4962827;28;20030;-76
2021/12/17 03:27:04;;;;;;;24.67;12.80;;;3.20;99.90;;;;;;4964785;28;19957;-76
2021/12/17 03:29:30;;;;;;;21.17;12.48;;;3.20;99.90;;;;;;4955026;28;20463;-76
2021/12/17 03:31:58;;;;;;;26.58;14.40;;;3.20;99.90;;;;;;4953072;28;20031;-73
2021/12/17 03:34:24;;;;;;;24.35;13.65;;;3.20;99.90;;;;;;4949401;28;22381;-73
2021/12/17 03:36:57;;;;;;;26.70;14.48;;;3.10;99.90;;;;;;4944265;28;20039;-74
2021/12/17 03:39:25;;;;;;;28.83;14.83;;;3.10;99.90;;;;;;4946437;28;20086;-76
2021/12/17 03:41:52;;;;;;;23.30;13.20;;;3.20;99.90;;;;;;4952983;28;20030;-76
2021/12/17 03:44:20;;;;;;;24.17;13.63;;;3.20;99.90;;;;;;4941449;28;20045;-76
2021/12/17 03:46:48;;;;;;;23.13;13.65;;;3.20;99.90;;;;;;4947888;28;20031;-76
2021/12/17 03:49:17;;;;;;;24.08;13.02;;;3.20;99.90;;;;;;4951733;28;20034;-76
2021/12/17 03:51:53;;;;;;;23.25;12.27;;;3.20;99.90;;;;;;4949398;28;20059;-76
2021/12/17 03:54:19;;;;;;;21.38;13.32;;;3.20;99.90;;;;;;4950609;28;20023;-77
2021/12/17 03:56:45;;;;;;;24.70;13.65;;;3.20;99.90;;;;;;4952651;28;20031;-76
2021/12/17 03:59:11;;;;;;;24.33;13.30;;;3.30;99.90;;;;;;4955356;28;20027;-74
2021/12/17 04:01:40;;;;;;;23.20;12.88;;;3.20;99.90;;;;;;4950369;28;20038;-76
2021/12/17 04:04:06;;;;;;;24.73;13.23;;;3.20;99.90;;;;;;4954384;28;20495;-76
2021/12/17 04:06:33;;;;;;;24.27;12.73;;;3.20;99.90;;;;;;4959753;28;20046;-74
2021/12/17 04:08:59;;;;;;;22.73;11.95;;;3.20;99.90;;;;;;4956733;28;20054;-76
2021/12/17 04:11:24;;;;;;;23.05;12.45;;;3.30;99.90;;;;;;4952060;28;20483;-76
2021/12/17 04:13:55;;;;;;;22.35;12.52;;;3.30;99.90;;;;;;4957043;28;20024;-76
2021/12/17 04:16:26;;;;;;;23.33;12.57;;;3.40;99.90;;;;;;4954391;28;20035;-76
2021/12/17 04:18:53;;;;;;;23.17;12.55;;;3.40;99.90;;;;;;4953542;28;20019;-76
2021/12/17 04:21:19;;;;;;;22.30;12.43;;;3.40;99.90;;;;;;4959045;28;20684;-76
2021/12/17 04:23:47;;;;;;;24.92;12.52;;;3.50;99.90;;;;;;4955066;28;20459;-76
2021/12/17 04:26:15;;;;;;;27.42;14.00;;;3.50;99.90;;;;;;4959293;28;20034;-76
2021/12/17 04:28:45;;;;;;;26.05;12.35;;;3.50;99.90;;;;;;4956761;28;20404;-76
2021/12/17 04:31:11;;;;;;;26.50;12.60;;;3.50;99.90;;;;;;4950766;28;20019;-76
2021/12/17 04:33:39;;;;;;;24.13;12.95;;;3.50;99.90;;;;;;4951144;28;20032;-76
2021/12/17 04:36:06;;;;;;;29.25;13.55;;;3.50;99.90;;;;;;4958941;28;20027;-75
2021/12/17 04:38:32;;;;;;;21.80;12.60;;;3.60;99.90;;;;;;4952346;28;20023;-76
2021/12/17 04:41:18;;;;;;;22.52;12.75;;;3.60;99.90;;;;;;4954106;28;20472;-76
2021/12/17 04:43:57;;;;;;;25.92;12.25;;;3.70;99.90;;;;;;4955337;28;20046;-76
2021/12/17 04:46:36;;;;;;;23.95;12.65;;;3.70;99.90;;;;;;4953076;28;20035;-76
2021/12/17 04:59:50;;;;;;;25.42;13.32;;;3.80;99.90;;;;;;4947556;28;20513;-76
2021/12/17 05:02:17;;;;;;;21.70;12.65;;;3.80;99.90;;;;;;4953027;28;20130;-76
2021/12/17 05:04:44;;;;;;;24.23;13.10;;;3.90;99.90;;;;;;4951106;28;20057;-76
2021/12/17 05:07:12;;;;;;;22.48;13.35;;;3.90;99.90;;;;;;4951379;28;20027;-75
2021/12/17 05:09:51;;;;;;;23.20;13.27;;;3.90;99.90;;;;;;4953055;28;20403;-76
2021/12/17 05:20:45;;;;;;;;;;;3.90;99.90;;;;;;4951979;28;21348;-76
2021/12/17 05:23:11;;;;;;;21.25;11.68;;;4.00;99.90;;;;;;4959237;28;19926;-76
2021/12/17 05:25:37;;;;;;;22.88;13.43;;;4.00;99.90;;;;;;4964358;28;20035;-76
2021/12/17 05:28:03;;;;;;;21.20;11.55;;;4.00;99.90;;;;;;4959352;28;20031;-75
2021/12/17 05:30:34;;;;;;;23.50;13.05;;;4.00;99.90;;;;;;4950018;28;20098;-75
2021/12/17 05:33:01;;;;;;;24.83;13.30;;;4.00;99.90;;;;;;4945001;28;20442;-76
2021/12/17 05:35:27;;;;;;;24.35;14.13;;;3.90;99.90;;;;;;4950152;28;20027;-76
2021/12/17 05:37:54;;;;;;;26.60;13.52;;;3.90;99.90;;;;;;4943690;28;20051;-76
2021/12/17 05:40:20;;;;;;;24.48;13.40;;;3.90;99.90;;;;;;4949720;28;20475;-75
2021/12/17 05:42:48;;;;;;;23.58;13.10;;;3.90;99.90;;;;;;4953365;28;20503;-76
2021/12/17 05:48:06;;;;;;;25.50;13.90;;;3.70;99.90;;;;;;4953021;28;20510;-76
2021/12/17 05:50:34;;;;;;;23.00;13.68;;;3.80;99.90;;;;;;4942876;28;20431;-76
2021/12/17 05:53:01;;;;;;;27.17;15.00;;;3.80;99.90;;;;;;4955383;28;20078;-76
2021/12/17 05:55:27;;;;;;;23.30;13.52;;;3.90;99.90;;;;;;4947471;28;20035;-81
2021/12/17 05:57:53;;;;;;;27.30;14.25;;;3.90;99.90;;;;;;4954218;28;20101;-77
2021/12/17 06:00:21;;;;;;;26.35;15.07;;;3.90;99.90;;;;;;4970537;28;20452;-76
2021/12/17 06:02:49;;;;;;;25.42;14.35;;;3.90;99.90;;;;;;4960545;28;20482;-76
2021/12/17 06:05:16;;;;;;;21.55;12.70;;;3.80;99.90;;;;;;4955909;28;20082;-76
2021/12/17 06:07:41;;;;;;;28.25;14.02;;;3.80;99.90;;;;;;4952725;28;20372;-76
2021/12/17 06:10:09;;;;;;;27.90;14.50;;;3.70;99.90;;;;;;4949031;28;20074;-75
2021/12/17 06:12:36;;;;;;;25.90;13.27;;;3.70;99.90;;;;;;4944359;28;20597;-74
2021/12/17 06:15:07;;;;;;;24.80;14.60;;;3.70;99.90;;;;;;4937430;28;20121;-76
2021/12/17 06:17:33;;;;;;;25.25;14.52;;;3.60;99.90;;;;;;4942141;28;20034;-75
2021/12/17 06:19:58;;;;;;;27.40;15.25;;;3.60;99.90;;;;;;4949305;28;20039;-76
2021/12/17 06:22:24;;;;;;;27.52;14.82;;;3.50;99.90;;;;;;4948542;28;20038;-75
2021/12/17 06:24:50;;;;;;;25.25;13.82;;;3.50;99.90;;;;;;4952553;28;20039;-76
2021/12/17 06:27:17;;;;;;;22.35;13.13;;;3.40;99.90;;;;;;4951516;28;20039;-76
2021/12/17 06:29:44;;;;;;;23.67;12.82;;;3.30;99.90;;;;;;4948582;28;20028;-76
2021/12/17 06:32:10;;;;;;;26.13;14.43;;;3.30;99.90;;;;;;4943958;28;20035;-76
2021/12/17 06:34:37;;;;;;;26.58;15.40;;;3.20;99.90;;;;;;4946093;28;20023;-76
2021/12/17 06:37:04;;;;;;;26.35;14.60;;;3.20;99.90;;;;;;4946414;28;20070;-74
2021/12/17 06:39:30;;;;;;;28.65;14.90;;;3.10;99.90;;;;;;4950946;28;20027;-74
2021/12/17 06:41:56;;;;;;;26.52;14.45;;;3.10;99.90;;;;;;4954950;28;20086;-75
2021/12/17 06:44:24;;;;;;;23.90;14.05;;;3.00;99.90;;;;;;4942279;28;20023;-76
2021/12/17 06:49:27;;;;;;;26.77;14.80;;;2.90;99.90;;;;;;4943657;28;20101;-75
2021/12/17 07:10:41;;;;;;;;;;;2.40;99.90;;;;;;4937723;28;20105;-76
2021/12/17 07:33:57;;;;;;;28.02;14.93;;;2.30;99.90;;;;;;4950367;28;20451;-74
2021/12/17 07:36:23;;;;;;;31.45;14.93;;;2.30;99.90;;;;;;4950155;28;20399;-75
2021/12/17 07:38:50;;;;;;;29.65;15.95;;;2.30;99.90;;;;;;4948910;28;20027;-75
2021/12/17 07:41:17;;;;;;;29.25;15.60;;;2.20;99.90;;;;;;4945705;28;20019;-75
2021/12/17 07:43:55;;;;;;;29.50;15.10;;;2.20;99.90;;;;;;4947824;28;20063;-75
2021/12/17 07:46:21;;;;;;;30.88;14.98;;;2.20;99.90;;;;;;4947685;28;20452;-75
2021/12/17 07:48:47;;;;;;;29.83;15.13;;;2.20;99.90;;;;;;4951170;28;20026;-75
2021/12/17 07:51:15;;;;;;;32.53;15.60;;;2.20;99.90;;;;;;4956966;28;20031;-74
2021/12/17 07:53:41;;;;;;;26.08;15.05;;;2.20;99.90;;;;;;4947043;28;20094;-75
2021/12/17 07:56:10;;;;;;;27.30;15.77;;;2.20;99.90;;;;;;4955910;28;20031;-77
2021/12/17 07:58:35;;;;;;;28.17;15.63;;;2.20;99.90;;;;;;4955839;28;20078;-75
2021/12/17 08:01:02;;;;;;;33.67;15.23;;;2.20;99.90;;;;;;4950146;28;20451;-74
2021/12/17 08:03:28;;;;;;;29.20;15.20;;;2.20;99.90;;;;;;4948577;28;20024;-74
2021/12/17 08:05:55;;;;;;;31.90;15.13;;;2.20;99.90;;;;;;4953759;28;20105;-76
2021/12/17 08:08:21;;;;;;;33.97;16.52;;;2.20;99.90;;;;;;4950447;28;20059;-76
2021/12/17 08:10:47;;;;;;;25.85;15.60;;;2.20;99.90;;;;;;4927902;28;20047;-74
2021/12/17 08:13:20;;;;;;;25.23;13.98;;;2.20;99.90;;;;;;4945647;28;20036;-74
2021/12/17 08:16:18;;;;;;;28.45;16.00;;;2.20;99.90;;;;;;4951716;28;20560;-73
2021/12/17 08:31:35;;;;;;;33.20;14.90;;;2.20;99.90;;;;;;4946521;28;20091;-75
2021/12/17 08:34:02;;;;;;;27.40;15.00;;;2.20;99.90;;;;;;4951612;28;20034;-74
2021/12/17 08:36:29;;;;;;;30.23;15.07;;;2.30;99.90;;;;;;4948295;28;20031;-74
2021/12/17 08:38:55;;;;;;;28.10;14.18;;;2.40;99.90;;;;;;4954136;28;20031;-74
2021/12/17 08:41:21;;;;;;;26.92;14.40;;;2.40;99.90;;;;;;4949683;28;20031;-75
2021/12/17 08:43:48;;;;;;;25.67;13.65;;;2.50;99.90;;;;;;4950477;28;20360;-74
2021/12/17 08:46:14;;;;;;;27.17;14.40;;;2.50;99.90;;;;;;4956116;28;20089;-74
2021/12/17 08:48:40;;;;;;;26.98;13.93;;;2.60;99.90;;;;;;4953014;28;20042;-75
2021/12/17 08:51:08;;;;;;;21.83;12.57;;;2.70;99.90;;;;;;4952417;28;20027;-75
2021/12/17 08:53:34;;;;;;;26.33;13.75;;;2.70;99.90;;;;;;4950489;28;20035;-75
2021/12/17 08:56:00;;;;;;;25.88;14.60;;;2.80;99.90;;;;;;4951580;28;20042;-75
2021/12/17 08:58:26;;;;;;;23.73;12.20;;;2.80;99.90;;;;;;4950701;28;20435;-74
2021/12/17 09:00:52;;;;;;;26.08;13.07;;;2.80;99.90;;;;;;4961345;28;20390;-75
2021/12/17 09:03:17;;;;;;;28.60;13.95;;;2.90;99.90;;;;;;4957323;28;20027;-76
2021/12/17 09:05:45;;;;;;;27.35;13.45;;;3.00;99.90;;;;;;4957313;28;20435;-77
2021/12/17 09:08:12;;;;;;;29.67;15.90;;;3.10;99.90;;;;;;4949674;28;20527;-74
2021/12/17 09:10:38;;;;;;;28.20;15.25;;;3.10;99.90;;;;;;4943658;28;20482;-75
2021/12/17 09:13:05;;;;;;;27.27;15.38;;;3.20;99.90;;;;;;4948217;28;20572;-73
2021/12/17 09:15:32;;;;;;;26.10;15.15;;;3.30;99.90;;;;;;4965735;28;20055;-76
2021/12/17 09:17:58;;;;;;;27.80;16.20;;;3.30;99.90;;;;;;4966600;28;20497;-76
2021/12/17 09:20:23;;;;;;;30.48;15.30;;;3.30;99.90;;;;;;4954588;28;20039;-76
2021/12/17 09:22:49;;;;;;;29.80;17.02;;;3.50;99.90;;;;;;4948252;28;20022;-75
2021/12/17 09:25:15;;;;;;;29.02;15.20;;;3.50;99.90;;;;;;4950357;28;20031;-75
2021/12/17 09:27:41;;;;;;;31.08;17.08;;;3.50;99.90;;;;;;4969353;28;20031;-75
2021/12/17 09:30:14;;;;;;;33.85;16.10;;;3.50;99.90;;;;;;4954661;28;20054;-76
2021/12/17 09:32:40;;;;;;;29.30;15.88;;;3.60;99.90;;;;;;4954652;28;20482;-76
2021/12/17 09:35:10;;;;;;;28.45;14.70;;;3.60;99.90;;;;;;4952556;28;20583;-76
2021/12/17 09:37:37;;;;;;;30.15;16.33;;;3.70;99.90;;;;;;4951440;28;20787;-75
2021/12/17 09:40:06;;;;;;;30.13;16.83;;;3.70;99.90;;;;;;4965850;28;20031;-75
2021/12/17 09:42:36;;;;;;;34.40;18.30;;;3.70;99.90;;;;;;4951697;28;20569;-75
2021/12/17 09:45:04;;;;;;;33.03;19.25;;;3.80;99.90;;;;;;4953912;28;20093;-76
2021/12/17 09:47:30;;;;;;;41.15;19.50;;;3.90;99.90;;;;;;4959275;28;20442;-75
2021/12/17 09:49:58;;;;;;;32.95;17.27;;;3.90;99.90;;;;;;4959222;28;20031;-76
2021/12/17 09:52:24;;;;;;;36.97;17.85;;;3.90;99.90;;;;;;4951252;28;20027;-76
2021/12/17 09:54:50;;;;;;;26.98;15.35;;;4.00;99.90;;;;;;4949992;28;20110;-76
2021/12/17 09:57:17;;;;;;;28.00;15.82;;;4.00;99.90;;;;;;4950701;28;20086;-76
2021/12/17 09:59:43;;;;;;;24.88;15.07;;;4.10;99.90;;;;;;4960268;28;20029;-77
2021/12/17 10:02:09;;;;;;;25.75;14.65;;;4.20;99.90;;;;;;4959247;28;20102;-77
2021/12/17 10:04:36;;;;;;;24.20;12.85;;;4.20;99.90;;;;;;4956078;28;20204;-75
2021/12/17 10:07:20;;;;;;;20.48;11.65;;;4.20;99.90;;;;;;4949512;28;20031;-77
2021/12/17 10:09:51;;;;;;;17.02;10.20;;;4.30;99.90;;;;;;4958353;28;20023;-76
2021/12/17 10:12:28;;;;;;;18.25;10.32;;;4.40;99.90;;;;;;4947986;28;20056;-76
2021/12/17 10:15:02;;;;;;;12.07;7.53;;;4.50;99.90;;;;;;4955902;28;20051;-75
2021/12/17 10:17:28;;;;;;;16.15;9.68;;;4.50;99.90;;;;;;4958449;28;20078;-77
2021/12/17 10:19:54;;;;;;;14.57;8.25;;;4.50;99.90;;;;;;4982636;28;20047;-75
2021/12/17 10:22:21;;;;;;;15.55;7.75;;;4.60;99.90;;;;;;4940444;28;20113;-76
2021/12/17 10:25:06;;;;;;;14.82;8.60;;;4.60;99.90;;;;;;4955212;28;20064;-75
2021/12/17 10:27:35;;;;;;;12.27;7.13;;;4.60;99.90;;;;;;4957236;28;20023;-75
2021/12/17 10:30:13;;;;;;;13.88;7.32;;;4.70;99.90;;;;;;4955935;28;20034;-76
2021/12/17 10:32:43;;;;;;;12.02;6.70;;;4.70;99.90;;;;;;4959319;28;20019;-75
2021/12/17 10:35:17;;;;;;;10.35;7.07;;;4.80;99.90;;;;;;4959863;28;20035;-75
2021/12/17 10:37:44;;;;;;;10.85;6.80;;;4.80;99.90;;;;;;4963305;28;20277;-75
2021/12/17 10:40:29;;;;;;;14.63;6.90;;;4.80;99.90;;;;;;4963632;28;20399;-75
2021/12/17 10:45:59;;;;;;;12.07;7.40;;;4.90;99.90;;;;;;4958895;28;20042;-75
2021/12/17 10:51:31;;;;;;;15.55;7.78;;;5.00;99.90;;;;;;4962840;28;20039;-75
2021/12/17 10:54:03;;;;;;;14.55;7.57;;;5.00;99.90;;;;;;4960643;28;20491;-74
2021/12/17 10:56:37;;;;;;;13.07;7.68;;;5.10;99.90;;;;;;4960210;28;20126;-76
2021/12/17 10:59:05;;;;;;;12.68;7.75;;;5.10;99.90;;;;;;4959369;28;20030;-75
2021/12/17 11:01:34;;;;;;;13.00;7.05;;;5.20;99.90;;;;;;4960304;28;20444;-75
2021/12/17 11:04:22;;;;;;;14.82;8.57;;;5.20;99.90;;;;;;4961564;28;20035;-75
2021/12/17 11:06:59;;;;;;;14.10;8.60;;;5.20;99.90;;;;;;4961008;28;20611;-76
2021/12/17 11:09:34;;;;;;;16.52;9.05;;;5.30;99.90;;;;;;4964481;28;20530;-76
2021/12/17 11:12:14;;;;;;;14.90;9.00;;;5.30;99.90;;;;;;4963781;28;20072;-75
2021/12/17 11:14:41;;;;;;;14.40;8.13;;;5.40;99.90;;;;;;4958909;28;20027;-76
2021/12/17 11:17:10;;;;;;;12.10;6.53;;;5.30;99.90;;;;;;4968048;28;20479;-76
2021/12/17 11:19:37;;;;;;;10.20;6.13;;;5.40;99.90;;;;;;4954621;28;20022;-76
2021/12/17 11:22:03;;;;;;;10.50;6.60;;;5.40;99.90;;;;;;4956278;28;20028;-76
2021/12/17 11:24:33;;;;;;;10.50;6.70;;;5.40;99.90;;;;;;4993230;28;20038;-75
2021/12/17 11:26:59;;;;;;;11.77;6.97;;;5.40;99.90;;;;;;4963119;28;20105;-75
2021/12/17 11:29:26;;;;;;;10.20;6.50;;;5.50;99.90;;;;;;4958637;28;20550;-74
2021/12/17 11:31:52;;;;;;;13.13;7.90;;;5.50;99.90;;;;;;4959083;28;20038;-74
2021/12/17 11:34:18;;;;;;;14.20;8.25;;;5.50;99.90;;;;;;4958920;28;20038;-75
2021/12/17 11:36:45;;;;;;;13.43;7.88;;;5.50;99.90;;;;;;4961615;28;20031;-75
2021/12/17 11:39:26;;;;;;;14.30;8.40;;;5.50;99.90;;;;;;4962064;28;20027;-75
2021/12/17 11:41:58;;;;;;;15.95;8.73;;;5.50;99.90;;;;;;4960485;28;20039;-76
2021/12/17 11:44:29;;;;;;;19.17;8.90;;;5.60;99.90;;;;;;4963493;28;20083;-75
2021/12/17 11:47:06;;;;;;;16.92;8.48;;;5.60;99.90;;;;;;4962166;28;20488;-75
2021/12/17 11:49:47;;;;;;;15.23;9.13;;;5.60;99.90;;;;;;4955668;28;20031;-75
2021/12/17 11:52:14;;;;;;;14.60;9.30;;;5.70;99.90;;;;;;4956639;28;20062;-74
2021/12/17 11:54:40;;;;;;;14.25;9.38;;;5.70;99.90;;;;;;4954750;28;20091;-75
2021/12/17 11:57:17;;;;;;;13.88;7.65;;;5.70;99.90;;;;;;4959346;28;20042;-75
2021/12/17 11:59:45;;;;;;;15.18;8.20;;;5.70;99.90;;;;;;4957722;28;20073;-76
2021/12/17 12:02:17;;;;;;;12.07;7.55;;;5.80;99.90;;;;;;4961110;28;20074;-76
2021/12/17 12:04:55;;;;;;;14.13;7.88;;;5.80;99.90;;;;;;4963467;28;20416;-74
2021/12/17 12:07:41;;;;;;;13.68;7.50;;;5.80;99.90;;;;;;4959928;28;20085;-76
2021/12/17 12:10:09;;;;;;;13.65;7.60;;;5.80;99.90;;;;;;4956294;28;20145;-75
2021/12/17 12:12:35;;;;;;;13.02;7.40;;;5.80;99.90;;;;;;4955740;28;20038;-75
2021/12/17 12:15:30;;;;;;;15.05;8.18;;;5.80;99.90;;;;;;4964667;28;20031;-75
2021/12/17 12:18:09;;;;;;;14.48;8.00;;;5.80;99.90;;;;;;4961695;28;20027;-75
2021/12/17 12:20:55;;;;;;;20.60;9.82;;;5.90;99.90;;;;;;4960220;28;20031;-75
2021/12/17 12:23:29;;;;;;;12.32;7.63;;;5.90;99.90;;;;;;4958895;28;20023;-75
2021/12/17 12:26:01;;;;;;;14.85;8.48;;;5.90;99.90;;;;;;4958750;28;20510;-75
2021/12/17 12:28:45;;;;;;;14.25;8.38;;;5.90;99.90;;;;;;4960530;28;20058;-75
2021/12/17 12:31:15;;;;;;;17.85;8.70;;;6.00;99.90;;;;;;4961744;28;20037;-76
2021/12/17 12:34:03;;;;;;;14.77;8.05;;;6.00;99.90;;;;;;4967623;28;20045;-75
2021/12/17 12:37:00;;;;;;;17.05;7.38;;;6.00;99.90;;;;;;4959838;28;20029;-76
2021/12/17 12:39:26;;;;;;;14.70;7.50;;;6.10;99.90;;;;;;4968358;28;20707;-76
2021/12/17 12:41:59;;;;;;;12.73;7.60;;;6.10;99.90;;;;;;4963535;28;20042;-76
2021/12/17 12:44:40;;;;;;;21.48;8.90;;;6.10;99.90;;;;;;4963152;28;20031;-75
2021/12/17 12:47:07;;;;;;;14.68;6.60;;;6.10;99.90;;;;;;4952664;28;20031;-75
2021/12/17 12:49:56;;;;;;;12.05;7.82;;;6.10;99.90;;;;;;4957004;28;20043;-75
2021/12/17 12:52:34;;;;;;;13.07;7.93;;;6.10;99.90;;;;;;4959590;28;20027;-75
2021/12/17 12:55:24;;;;;;;11.98;7.68;;;6.10;99.90;;;;;;4956839;28;20562;-75
2021/12/17 12:58:05;;;;;;;12.80;7.30;;;6.20;99.90;;;;;;4959295;28;20031;-76
2021/12/17 13:00:54;;;;;;;12.82;7.68;;;6.20;99.90;;;;;;4958306;28;20114;-75
2021/12/17 13:03:28;;;;;;;11.77;6.72;;;6.20;99.90;;;;;;4961955;28;20483;-75
2021/12/17 13:05:55;;;;;;;11.10;6.68;;;6.20;99.90;;;;;;4961680;28;20027;-75
2021/12/17 13:08:23;;;;;;;12.15;7.63;;;6.20;99.90;;;;;;4962078;28;20022;-75
2021/12/17 13:11:04;;;;;;;13.57;7.60;;;6.20;99.90;;;;;;4964772;28;20037;-76
2021/12/17 13:13:36;;;;;;;9.38;6.32;;;6.20;99.90;;;;;;4959548;28;20113;-74
2021/12/17 13:16:12;;;;;;;13.20;7.35;;;6.20;99.90;;;;;;4966312;28;20089;-75
2021/12/17 13:24:16;;;;;;;11.13;6.47;;;6.30;99.90;;;;;;4962180;28;20035;-76
2021/12/17 13:26:44;;;;;;;10.68;6.20;;;6.30;99.90;;;;;;4965697;28;20031;-76
2021/12/17 13:29:23;;;;;;;9.70;5.70;;;6.30;99.90;;;;;;4957836;28;20042;-73
2021/12/17 13:31:55;;;;;;;11.93;6.90;;;6.30;99.90;;;;;;4965759;28;20038;-76
2021/12/17 13:34:35;;;;;;;11.52;5.70;;;6.30;99.90;;;;;;4995974;28;20031;-74
2021/12/17 13:37:15;;;;;;;10.88;6.25;;;6.30;99.90;;;;;;4962534;28;20055;-76
2021/12/17 13:39:49;;;;;;;11.18;6.05;;;6.30;99.90;;;;;;4957378;28;20026;-77
2021/12/17 13:42:19;;;;;;;13.25;6.72;;;6.30;99.90;;;;;;4960227;28;20054;-76
2021/12/17 13:44:48;;;;;;;11.93;6.18;;;6.30;99.90;;;;;;4956974;28;20029;-74
2021/12/17 13:47:23;;;;;;;12.35;7.50;;;6.30;99.90;;;;;;4990739;28;20030;-76
2021/12/17 13:49:48;;;;;;;10.60;6.72;;;6.30;99.90;;;;;;4962161;28;20062;-76
2021/12/17 13:52:15;;;;;;;12.20;6.60;;;6.30;99.90;;;;;;4981657;28;20071;-76
2021/12/17 13:54:45;;;;;;;13.55;6.72;;;6.40;99.90;;;;;;4956147;28;20029;-75
2021/12/17 13:57:14;;;;;;;9.13;6.20;;;6.40;99.90;;;;;;4956333;28;20325;-76
2021/12/17 13:59:41;;;;;;;17.73;7.63;;;6.40;99.90;;;;;;4991968;23;20047;-78
2021/12/17 14:02:11;;;;;;;9.73;6.28;;;6.40;99.90;;;;;;4953795;28;20028;-79
2021/12/17 14:04:37;;;;;;;10.55;6.20;;;6.40;99.90;;;;;;4966956;28;20110;-79
2021/12/17 14:07:10;;;;;;;10.73;6.45;;;6.40;99.90;;;;;;4951167;28;20476;-79
2021/12/17 14:09:37;;;;;;;11.05;6.22;;;6.40;99.90;;;;;;4966501;28;20035;-79
2021/12/17 14:12:11;;;;;;;10.50;6.53;;;6.30;99.90;;;;;;4952371;28;20502;-79
2021/12/17 14:14:37;;;;;;;10.60;6.60;;;6.30;99.90;;;;;;4956582;28;20050;-78
2021/12/17 14:17:08;;;;;;;11.70;7.30;;;6.30;99.90;;;;;;4952853;28;20034;-78
2021/12/17 14:19:41;;;;;;;11.10;6.53;;;6.30;99.90;;;;;;4952937;28;20171;-79
2021/12/17 14:22:20;;;;;;;11.70;6.80;;;6.20;99.90;;;;;;4952375;28;20085;-80
2021/12/17 14:24:45;;;;;;;12.30;6.88;;;6.30;99.90;;;;;;4951694;28;20023;-80
2021/12/17 14:27:11;;;;;;;11.27;6.00;;;6.30;99.90;;;;;;4949343;28;20598;-80
2021/12/17 14:29:38;;;;;;;10.90;5.55;;;6.30;99.90;;;;;;4965179;28;20027;-79
2021/12/17 14:32:04;;;;;;;9.65;5.68;;;6.30;99.90;;;;;;4952829;28;20031;-80
2021/12/17 14:34:40;;;;;;;9.10;5.68;;;6.20;99.90;;;;;;4954000;28;20045;-80
2021/12/17 14:37:06;;;;;;;10.13;6.30;;;6.20;99.90;;;;;;4947926;28;20336;-80
2021/12/17 14:39:38;;;;;;;12.23;6.72;;;6.30;99.90;;;;;;4948291;28;20038;-80
2021/12/17 14:42:07;;;;;;;13.00;6.35;;;6.20;99.90;;;;;;4951485;28;20027;-80
2021/12/17 14:44:47;;;;;;;13.55;7.22;;;6.10;99.90;;;;;;4951140;28;20473;-80
2021/12/17 15:01:11;;;;;;;10.00;6.20;;;6.00;99.90;;;;;;4950232;28;20074;-80
2021/12/17 15:03:43;;;;;;;10.18;5.88;;;6.00;99.90;;;;;;4949238;28;20024;-80
2021/12/17 15:06:12;;;;;;;9.98;6.43;;;5.90;99.90;;;;;;4949973;28;20042;-80
2021/12/17 15:08:38;;;;;;;16.52;8.35;;;5.90;99.90;;;;;;4949813;28;20031;-80
2021/12/17 15:11:13;;;;;;;10.23;6.28;;;5.80;99.90;;;;;;4948687;28;20043;-80
2021/12/17 15:13:39;;;;;;;10.73;5.85;;;5.80;99.90;;;;;;4951985;28;20054;-80
2021/12/17 15:16:04;;;;;;;11.80;6.68;;;5.80;99.90;;;;;;4955871;28;20476;-80
2021/12/17 15:18:30;;;;;;;10.57;6.55;;;5.70;99.90;;;;;;4949806;28;20035;-79
2021/12/17 15:20:56;;;;;;;11.98;6.95;;;5.70;99.90;;;;;;4949386;28;20548;-80
2021/12/17 15:23:23;;;;;;;8.60;5.68;;;5.80;99.90;;;;;;4950255;28;20038;-80
2021/12/17 15:25:51;;;;;;;11.63;6.10;;;5.80;99.90;;;;;;4964595;28;20027;-80
2021/12/17 15:28:22;;;;;;;11.15;6.10;;;5.70;99.90;;;;;;4957872;28;20034;-79
2021/12/17 15:30:53;;;;;;;10.98;5.78;;;5.60;99.90;;;;;;4949564;28;20046;-80
2021/12/17 15:33:19;;;;;;;12.70;6.68;;;5.60;99.90;;;;;;4951167;28;20396;-80
2021/12/17 15:35:45;;;;;;;13.57;7.57;;;5.50;99.90;;;;;;4950287;28;20042;-79
2021/12/17 15:38:13;;;;;;;20.42;12.00;;;5.50;99.90;;;;;;4951887;28;20037;-79
2021/12/17 15:40:41;;;;;;;17.67;10.85;;;5.50;99.90;;;;;;4950231;28;20028;-79
2021/12/17 15:43:07;;;;;;;16.60;11.18;;;5.40;99.90;;;;;;4952846;28;20369;-79
2021/12/17 15:45:40;;;;;;;17.15;10.57;;;5.30;99.90;;;;;;4950229;28;20027;-79
2021/12/17 15:48:07;;;;;;;15.45;10.27;;;5.40;99.90;;;;;;4950416;28;20035;-80
2021/12/17 15:50:33;;;;;;;18.20;10.52;;;5.30;99.90;;;;;;4965807;28;20114;-80
2021/12/17 15:52:59;;;;;;;17.95;12.15;;;5.20;99.90;;;;;;4946806;28;20384;-79
2021/12/17 15:55:26;;;;;;;25.77;18.60;;;5.20;99.90;;;;;;4946727;28;20042;-79
2021/12/17 15:57:54;;;;;;;19.17;11.48;;;5.20;99.90;;;;;;4953333;28;20102;-80
2021/12/17 16:00:21;;;;;;;31.70;15.65;;;5.20;99.90;;;;;;4949022;28;20027;-79
2021/12/17 16:02:47;;;;;;;23.67;14.43;;;5.30;99.90;;;;;;4963947;28;20066;-79
2021/12/17 16:05:15;;;;;;;15.70;9.20;;;5.30;99.90;;;;;;4951264;28;20135;-79
2021/12/17 16:07:43;;;;;;;16.02;9.77;;;5.30;99.90;;;;;;4966225;28;20027;-79
2021/12/17 16:23:19;;;;;;;18.13;10.10;;;5.50;99.90;;;;;;4955167;28;20034;-79
2021/12/17 16:25:44;;;;;;;18.45;10.48;;;5.50;99.90;;;;;;4949202;28;20028;-80
2021/12/17 16:28:10;;;;;;;18.65;10.13;;;5.50;99.90;;;;;;4945531;28;20035;-80